createdAt,value
2018-04-25T00:00:08.581Z,13.71
2018-04-25T00:01:08.318Z,13.82
2018-04-25T00:02:08.568Z,13.73
2018-04-25T00:03:08.562Z,13.77
2018-04-25T00:04:08.563Z,13.81
2018-04-25T00:05:08.301Z,13.81
2018-04-25T00:06:08.541Z,13.82
2018-04-25T00:07:08.294Z,13.71
2018-04-25T00:08:08.532Z,13.81
2018-04-25T00:09:08.273Z,13.87
2018-04-25T00:10:08.518Z,13.89
2018-04-25T00:11:08.512Z,13.88
2018-04-25T00:12:08.509Z,13.84
2018-04-25T00:13:08.505Z,13.88
2018-04-25T00:14:08.243Z,13.88
2018-04-25T00:15:08.237Z,13.89
2018-04-25T00:16:08.364Z,13.88
2018-04-25T00:17:08.477Z,13.85
2018-04-25T00:18:08.470Z,13.85
2018-04-25T00:19:08.723Z,13.82
2018-04-25T00:20:08.462Z,13.81
2018-04-25T00:21:08.456Z,13.87
2018-04-25T00:22:08.456Z,13.71
2018-04-25T00:23:08.446Z,13.82
2018-04-25T00:24:08.187Z,13.84
2018-04-25T00:25:08.432Z,13.82
2018-04-25T00:26:08.172Z,13.75
2018-04-25T00:27:08.418Z,13.87
2018-04-25T00:28:08.162Z,13.87
2018-04-25T00:29:08.158Z,13.71
2018-04-25T00:30:08.147Z,13.85
2018-04-25T00:31:08.399Z,13.82
2018-04-25T00:32:07.882Z,13.81
2018-04-25T00:33:08.387Z,13.82
2018-04-25T00:34:08.124Z,13.87
2018-04-25T00:35:08.117Z,13.85
2018-04-25T00:36:07.858Z,13.87
2018-04-25T00:37:08.112Z,13.75
2018-04-25T00:38:08.356Z,13.82
2018-04-25T00:39:08.364Z,13.79
2018-04-25T00:40:08.091Z,13.78
2018-04-25T00:41:08.083Z,13.77
2018-04-25T00:42:08.337Z,13.77
2018-04-25T00:43:08.344Z,13.69
2018-04-25T00:44:08.066Z,13.7
2018-04-25T00:45:08.321Z,13.75
2018-04-25T00:46:08.051Z,13.69
2018-04-25T00:47:07.794Z,13.66
2018-04-25T00:48:08.044Z,13.66
2018-04-25T00:49:08.034Z,13.7
2018-04-25T00:50:08.033Z,13.67
2018-04-25T00:51:08.284Z,13.77
2018-04-25T00:52:07.763Z,13.66
2018-04-25T00:53:08.010Z,13.63
2018-04-25T00:54:07.753Z,13.66
2018-04-25T00:55:08.252Z,13.7
2018-04-25T00:56:07.995Z,13.69
2018-04-25T00:57:07.987Z,13.69
2018-04-25T00:58:07.985Z,13.6
2018-04-25T00:59:07.976Z,13.63
2018-04-25T01:00:08.224Z,13.64
2018-04-25T01:01:07.963Z,13.57
2018-04-25T01:02:07.956Z,13.62
2018-04-25T01:03:08.204Z,13.63
2018-04-25T01:04:07.692Z,13.57
2018-04-25T01:05:07.942Z,13.6
2018-04-25T01:06:08.195Z,13.52
2018-04-25T01:07:07.930Z,13.54
2018-04-25T01:08:07.668Z,13.55
2018-04-25T01:09:07.916Z,13.59
2018-04-25T01:10:07.656Z,13.57
2018-04-25T01:11:08.164Z,13.66
2018-04-25T01:12:08.306Z,13.64
2018-04-25T01:13:08.144Z,13.6
2018-04-25T01:14:07.631Z,13.62
2018-04-25T01:15:08.140Z,13.63
2018-04-25T01:16:08.131Z,13.64
2018-04-25T01:17:08.126Z,13.67
2018-04-25T01:18:07.873Z,13.69
2018-04-25T01:19:07.860Z,13.57
2018-04-25T01:20:07.853Z,13.67
2018-04-25T01:21:07.845Z,13.63
2018-04-25T01:22:08.088Z,13.64
2018-04-25T01:23:07.592Z,13.63
2018-04-25T01:24:07.824Z,13.66
2018-04-25T01:25:07.817Z,13.66
2018-04-25T01:26:08.074Z,13.64
2018-04-25T01:27:07.809Z,13.62
2018-04-25T01:28:08.054Z,13.63
2018-04-25T01:29:08.047Z,13.62
2018-04-25T01:30:07.787Z,13.63
2018-04-25T01:31:08.035Z,13.57
2018-04-25T01:32:07.780Z,13.63
2018-04-25T01:33:08.022Z,13.64
2018-04-25T01:34:08.018Z,13.7
2018-04-25T01:35:07.759Z,13.64
2018-04-25T01:36:08.008Z,13.66
2018-04-25T01:37:07.496Z,13.64
2018-04-25T01:38:07.741Z,13.62
2018-04-25T01:39:07.738Z,13.66
2018-04-25T01:40:07.475Z,13.7
2018-04-25T01:41:07.721Z,13.63
2018-04-25T01:42:07.718Z,13.64
2018-04-25T01:43:07.717Z,13.63
2018-04-25T01:44:07.454Z,13.67
2018-04-25T01:45:07.950Z,13.67
2018-04-25T01:46:07.440Z,13.69
2018-04-25T01:47:07.695Z,13.69
2018-04-25T01:48:07.939Z,13.69
2018-04-25T01:49:07.676Z,13.71
2018-04-25T01:50:07.417Z,13.77
2018-04-25T01:51:07.926Z,13.79
2018-04-25T01:52:07.912Z,13.81
2018-04-25T01:53:07.903Z,13.78
2018-04-25T01:54:07.898Z,13.75
2018-04-25T01:55:07.637Z,13.71
2018-04-25T01:56:07.889Z,13.73
2018-04-25T01:57:07.886Z,13.82
2018-04-25T01:58:07.620Z,13.77
2018-04-25T01:59:07.362Z,13.67
2018-04-25T02:00:07.610Z,13.82
2018-04-25T02:01:07.855Z,13.78
2018-04-25T02:02:07.596Z,13.78
2018-04-25T02:03:07.844Z,13.78
2018-04-25T02:04:07.838Z,13.82
2018-04-25T02:05:07.831Z,13.7
2018-04-25T02:06:07.573Z,13.71
2018-04-25T02:07:07.831Z,13.71
2018-04-25T02:08:07.308Z,13.67
2018-04-25T02:09:07.555Z,13.66
2018-04-25T02:10:07.548Z,13.67
2018-04-25T02:11:07.544Z,13.59
2018-04-25T02:12:07.790Z,13.59
2018-04-25T02:13:07.784Z,13.6
2018-04-25T02:14:07.525Z,13.57
2018-04-25T02:15:07.783Z,13.52
2018-04-25T02:16:07.514Z,13.51
2018-04-25T02:17:07.505Z,13.52
2018-04-25T02:18:07.755Z,13.55
2018-04-25T02:19:07.750Z,13.49
2018-04-25T02:20:07.491Z,13.46
2018-04-25T02:21:07.738Z,13.44
2018-04-25T02:22:07.737Z,13.36
2018-04-25T02:23:07.516Z,13.41
2018-04-25T02:24:07.725Z,13.39
2018-04-25T02:25:07.762Z,13.41
2018-04-25T02:26:07.730Z,13.36
2018-04-25T02:27:07.699Z,13.25
2018-04-25T02:28:07.698Z,13.23
2018-04-25T02:29:07.696Z,13.28
2018-04-25T02:30:07.446Z,13.23
2018-04-25T02:31:07.168Z,13.23
2018-04-25T02:32:07.418Z,13.3
2018-04-25T02:33:07.415Z,13.29
2018-04-25T02:34:07.405Z,13.19
2018-04-25T02:35:07.653Z,13.32
2018-04-25T02:36:07.653Z,13.25
2018-04-25T02:37:07.652Z,13.28
2018-04-25T02:38:07.382Z,13.29
2018-04-25T02:39:07.373Z,13.3
2018-04-25T02:40:07.112Z,13.17
2018-04-25T02:41:07.362Z,13.28
2018-04-25T02:42:07.612Z,13.25
2018-04-25T02:43:07.603Z,13.28
2018-04-25T02:44:07.599Z,13.2
2018-04-25T02:45:07.352Z,13.26
2018-04-25T02:46:07.590Z,13.23
2018-04-25T02:47:07.322Z,13.29
2018-04-25T02:48:07.581Z,13.19
2018-04-25T02:49:07.318Z,13.28
2018-04-25T02:50:07.306Z,13.26
2018-04-25T02:51:07.052Z,13.19
2018-04-25T02:52:07.559Z,13.26
2018-04-25T02:53:07.540Z,13.23
2018-04-25T02:54:07.024Z,13.2
2018-04-25T02:55:07.786Z,13.17
2018-04-25T02:56:07.286Z,13.22
2018-04-25T02:57:07.265Z,13.2
2018-04-25T02:58:07.507Z,13.23
2018-04-25T02:59:07.262Z,13.22
2018-04-25T03:00:07.248Z,13.14
2018-04-25T03:01:07.488Z,13.17
2018-04-25T03:02:07.481Z,13.26
2018-04-25T03:03:07.223Z,13.23
2018-04-25T03:04:07.479Z,13.25
2018-04-25T03:05:07.470Z,13.26
2018-04-25T03:06:07.209Z,13.19
2018-04-25T03:07:07.198Z,13.2
2018-04-25T03:08:07.195Z,13.22
2018-04-25T03:09:07.193Z,13.17
2018-04-25T03:10:07.181Z,13.12
2018-04-25T03:11:07.176Z,13.15
2018-04-25T03:12:07.421Z,13.12
2018-04-25T03:13:07.414Z,13.17
2018-04-25T03:14:07.406Z,13.22
2018-04-25T03:15:07.415Z,13.11
2018-04-25T03:16:07.146Z,13.07
2018-04-25T03:17:06.882Z,13.12
2018-04-25T03:18:07.129Z,13.12
2018-04-25T03:19:07.384Z,13.11
2018-04-25T03:20:07.116Z,13.19
2018-04-25T03:21:07.370Z,13.19
2018-04-25T03:22:07.356Z,13.12
2018-04-25T03:23:07.359Z,13.19
2018-04-25T03:24:07.343Z,13.17
2018-04-25T03:25:07.086Z,13.22
2018-04-25T03:26:07.580Z,13.26
2018-04-25T03:27:07.328Z,13.12
2018-04-25T03:28:07.323Z,13.17
2018-04-25T03:29:07.057Z,13.14
2018-04-25T03:30:07.053Z,13.17
2018-04-25T03:31:06.798Z,13.23
2018-04-25T03:32:07.047Z,13.25
2018-04-25T03:33:07.036Z,13.23
2018-04-25T03:34:06.775Z,13.25
2018-04-25T03:35:07.022Z,13.2
2018-04-25T03:36:07.270Z,13.25
2018-04-25T03:37:07.261Z,13.22
2018-04-25T03:38:07.009Z,13.25
2018-04-25T03:39:07.326Z,13.32
2018-04-25T03:40:06.990Z,13.41
2018-04-25T03:41:07.384Z,13.39
2018-04-25T03:42:06.977Z,13.33
2018-04-25T03:43:06.716Z,13.36
2018-04-25T03:44:06.964Z,13.41
2018-04-25T03:45:07.218Z,13.41
2018-04-25T03:46:07.204Z,13.38
2018-04-25T03:47:07.199Z,13.39
2018-04-25T03:48:07.195Z,13.46
2018-04-25T03:49:06.931Z,13.44
2018-04-25T03:50:06.672Z,13.38
2018-04-25T03:51:06.920Z,13.39
2018-04-25T03:52:06.917Z,13.42
2018-04-25T03:53:06.908Z,13.42
2018-04-25T03:54:06.915Z,13.52
2018-04-25T03:55:06.893Z,13.52
2018-04-25T03:56:07.139Z,13.49
2018-04-25T03:57:06.877Z,13.55
2018-04-25T03:58:06.874Z,13.62
2018-04-25T03:59:06.949Z,13.57
2018-04-25T04:00:06.861Z,13.55
2018-04-25T04:01:06.859Z,13.62
2018-04-25T04:02:07.106Z,13.66
2018-04-25T04:03:06.843Z,13.63
2018-04-25T04:04:06.583Z,13.67
2018-04-25T04:05:07.086Z,13.67
2018-04-25T04:06:07.092Z,13.71
2018-04-25T04:07:06.564Z,13.73
2018-04-25T04:08:06.812Z,13.73
2018-04-25T04:09:06.553Z,13.78
2018-04-25T04:10:06.800Z,13.87
2018-04-25T04:11:07.048Z,13.79
2018-04-25T04:12:07.041Z,13.77
2018-04-25T04:13:07.337Z,13.85
2018-04-25T04:14:07.030Z,13.75
2018-04-25T04:15:07.025Z,13.87
2018-04-25T04:16:06.763Z,13.88
2018-04-25T04:17:07.015Z,13.95
2018-04-25T04:18:07.001Z,13.89
2018-04-25T04:19:06.744Z,13.85
2018-04-25T04:20:06.742Z,13.91
2018-04-25T04:21:06.984Z,14.03
2018-04-25T04:22:06.725Z,14.03
2018-04-25T04:23:06.980Z,14.14
2018-04-25T04:24:06.968Z,14.04
2018-04-25T04:25:06.712Z,14.07
2018-04-25T04:26:06.448Z,14.09
2018-04-25T04:27:06.949Z,14.17
2018-04-25T04:28:07.210Z,14.1
2018-04-25T04:29:06.684Z,14.21
2018-04-25T04:30:06.935Z,14.17
2018-04-25T04:31:06.686Z,14.18
2018-04-25T04:32:06.666Z,14.28
2018-04-25T04:33:06.915Z,14.27
2018-04-25T04:34:06.926Z,14.2
2018-04-25T04:35:06.914Z,14.28
2018-04-25T04:36:06.645Z,14.33
2018-04-25T04:37:06.896Z,14.28
2018-04-25T04:38:06.886Z,14.25
2018-04-25T04:39:06.624Z,14.27
2018-04-25T04:40:06.621Z,14.25
2018-04-25T04:41:06.663Z,14.33
2018-04-25T04:42:06.608Z,14.24
2018-04-25T04:43:06.670Z,14.37
2018-04-25T04:44:06.597Z,14.4
2018-04-25T04:45:06.596Z,14.47
2018-04-25T04:46:06.333Z,14.45
2018-04-25T04:47:06.841Z,14.51
2018-04-25T04:48:06.323Z,14.6
2018-04-25T04:49:06.581Z,14.58
2018-04-25T04:50:06.564Z,14.57
2018-04-25T04:51:06.306Z,14.65
2018-04-25T04:52:06.808Z,14.54
2018-04-25T04:53:06.554Z,14.68
2018-04-25T04:54:06.635Z,14.65
2018-04-25T04:55:06.283Z,14.61
2018-04-25T04:56:06.863Z,14.68
2018-04-25T04:57:06.524Z,14.75
2018-04-25T04:58:06.525Z,14.8
2018-04-25T04:59:06.515Z,14.81
2018-04-25T05:00:06.507Z,14.84
2018-04-25T05:01:06.761Z,14.83
2018-04-25T05:02:06.500Z,14.83
2018-04-25T05:03:06.749Z,14.91
2018-04-25T05:04:06.486Z,14.95
2018-04-25T05:05:06.486Z,15.02
2018-04-25T05:06:06.735Z,15.03
2018-04-25T05:07:06.472Z,15.06
2018-04-25T05:08:06.210Z,15.07
2018-04-25T05:09:06.716Z,15.06
2018-04-25T05:10:06.716Z,15.13
2018-04-25T05:11:06.452Z,15.23
2018-04-25T05:12:06.712Z,15.23
2018-04-25T05:13:06.868Z,15.21
2018-04-25T05:14:06.763Z,15.28
2018-04-25T05:15:06.694Z,15.35
2018-04-25T05:16:06.423Z,15.32
2018-04-25T05:17:06.427Z,15.41
2018-04-25T05:18:06.412Z,15.49
2018-04-25T05:19:06.417Z,15.47
2018-04-25T05:20:06.662Z,15.54
2018-04-25T05:21:06.409Z,15.49
2018-04-25T05:22:06.405Z,15.71
2018-04-25T05:23:06.390Z,15.62
2018-04-25T05:24:06.651Z,15.6
2018-04-25T05:25:06.473Z,15.71
2018-04-25T05:26:06.121Z,15.75
2018-04-25T05:27:06.373Z,15.75
2018-04-25T05:28:06.626Z,15.84
2018-04-25T05:29:06.361Z,15.89
2018-04-25T05:30:06.106Z,16.01
2018-04-25T05:31:06.616Z,16
2018-04-25T05:32:06.413Z,16.08
2018-04-25T05:33:06.341Z,16.21
2018-04-25T05:34:06.348Z,16.21
2018-04-25T05:35:06.389Z,16.24
2018-04-25T05:36:06.579Z,16.34
2018-04-25T05:37:06.585Z,16.41
2018-04-25T05:38:06.318Z,16.43
2018-04-25T05:39:06.318Z,16.48
2018-04-25T05:40:06.312Z,16.5
2018-04-25T05:41:06.559Z,16.6
2018-04-25T05:42:06.554Z,16.6
2018-04-25T05:43:06.300Z,16.61
2018-04-25T05:44:06.294Z,16.63
2018-04-25T05:45:06.288Z,16.7
2018-04-25T05:46:06.875Z,16.71
2018-04-25T05:47:06.298Z,16.78
2018-04-25T05:48:06.276Z,16.93
2018-04-25T05:49:06.533Z,16.89
2018-04-25T05:50:06.524Z,16.98
2018-04-25T05:51:06.520Z,17.07
2018-04-25T05:52:06.262Z,17.07
2018-04-25T05:53:06.259Z,17.33
2018-04-25T05:54:06.253Z,17.38
2018-04-25T05:55:06.251Z,17.46
2018-04-25T05:56:06.538Z,17.51
2018-04-25T05:57:06.241Z,17.52
2018-04-25T05:58:06.242Z,17.54
2018-04-25T05:59:06.236Z,17.46
2018-04-25T06:00:06.492Z,17.52
2018-04-25T06:01:06.232Z,17.52
2018-04-25T06:02:06.239Z,17.56
2018-04-25T06:03:06.507Z,17.62
2018-04-25T06:04:05.964Z,17.62
2018-04-25T06:05:06.470Z,17.63
2018-04-25T06:06:06.248Z,17.59
2018-04-25T06:07:06.261Z,17.63
2018-04-25T06:08:06.213Z,17.64
2018-04-25T06:09:06.225Z,17.62
2018-04-25T06:10:06.501Z,17.68
2018-04-25T06:11:05.942Z,17.59
2018-04-25T06:12:06.444Z,17.68
2018-04-25T06:13:06.205Z,17.68
2018-04-25T06:14:05.929Z,17.71
2018-04-25T06:15:06.438Z,17.74
2018-04-25T06:16:06.185Z,17.68
2018-04-25T06:17:06.432Z,17.7
2018-04-25T06:18:06.173Z,17.72
2018-04-25T06:19:06.253Z,17.84
2018-04-25T06:20:06.168Z,17.86
2018-04-25T06:21:06.186Z,17.81
2018-04-25T06:22:06.411Z,17.93
2018-04-25T06:23:06.408Z,18.03
2018-04-25T06:24:06.417Z,18.02
2018-04-25T06:25:06.420Z,18.18
2018-04-25T06:26:06.414Z,18.25
2018-04-25T06:27:06.143Z,18.29
2018-04-25T06:28:06.155Z,18.27
2018-04-25T06:29:06.392Z,18.32
2018-04-25T06:30:06.413Z,18.27
2018-04-25T06:31:06.390Z,18.47
2018-04-25T06:32:06.127Z,18.52
2018-04-25T06:33:06.392Z,18.55
2018-04-25T06:34:06.376Z,18.52
2018-04-25T06:35:06.389Z,18.57
2018-04-25T06:36:06.118Z,18.66
2018-04-25T06:37:06.128Z,18.7
2018-04-25T06:38:06.366Z,18.76
2018-04-25T06:39:06.365Z,18.75
2018-04-25T06:40:06.381Z,18.73
2018-04-25T06:41:06.104Z,18.72
2018-04-25T06:42:06.354Z,18.7
2018-04-25T06:43:06.449Z,18.6
2018-04-25T06:44:06.361Z,18.54
2018-04-25T06:45:06.716Z,18.58
2018-04-25T06:46:06.094Z,18.55
2018-04-25T06:47:06.414Z,18.66
2018-04-25T06:48:06.085Z,18.69
2018-04-25T06:49:06.338Z,18.66
2018-04-25T06:50:06.335Z,18.65
2018-04-25T06:51:06.346Z,18.55
2018-04-25T06:52:06.160Z,18.5
2018-04-25T06:53:06.345Z,18.57
2018-04-25T06:54:06.073Z,18.55
2018-04-25T06:55:06.071Z,18.6
2018-04-25T06:56:06.067Z,18.54
2018-04-25T06:57:06.063Z,18.55
2018-04-25T06:58:06.317Z,18.51
2018-04-25T06:59:06.307Z,18.55
2018-04-25T07:00:05.802Z,18.52
2018-04-25T07:01:05.818Z,18.45
2018-04-25T07:02:06.065Z,18.51
2018-04-25T07:03:06.050Z,18.62
2018-04-25T07:04:06.342Z,18.5
2018-04-25T07:05:06.077Z,18.45
2018-04-25T07:06:06.041Z,18.55
2018-04-25T07:07:06.038Z,18.55
2018-04-25T07:08:06.173Z,18.54
2018-04-25T07:09:06.295Z,18.54
2018-04-25T07:10:05.770Z,18.54
2018-04-25T07:11:05.767Z,18.52
2018-04-25T07:12:06.268Z,18.54
2018-04-25T07:13:06.278Z,18.52
2018-04-25T07:14:06.168Z,18.51
2018-04-25T07:15:06.016Z,18.58
2018-04-25T07:16:05.763Z,18.58
2018-04-25T07:17:06.012Z,18.54
2018-04-25T07:18:06.271Z,18.57
2018-04-25T07:19:06.017Z,18.52
2018-04-25T07:20:06.246Z,18.51
2018-04-25T07:21:06.251Z,18.52
2018-04-25T07:22:05.988Z,18.48
2018-04-25T07:23:06.240Z,18.58
2018-04-25T07:24:05.984Z,18.48
2018-04-25T07:25:05.978Z,18.52
2018-04-25T07:26:05.998Z,18.45
2018-04-25T07:27:06.233Z,18.47
2018-04-25T07:28:06.223Z,18.44
2018-04-25T07:29:06.224Z,18.39
2018-04-25T07:30:05.712Z,18.44
2018-04-25T07:31:05.981Z,18.5
2018-04-25T07:32:06.221Z,18.37
2018-04-25T07:33:06.210Z,18.44
2018-04-25T07:34:06.225Z,18.42
2018-04-25T07:35:06.265Z,18.44
2018-04-25T07:36:05.701Z,18.41
2018-04-25T07:37:06.238Z,18.36
2018-04-25T07:38:06.240Z,18.33
2018-04-25T07:39:05.951Z,18.33
2018-04-25T07:40:06.193Z,18.32
2018-04-25T07:41:06.215Z,18.3
2018-04-25T07:42:05.928Z,18.26
2018-04-25T07:43:06.236Z,18.18
2018-04-25T07:44:06.212Z,18.17
2018-04-25T07:45:05.946Z,18.05
2018-04-25T07:46:05.918Z,18.03
2018-04-25T07:47:06.181Z,17.89
2018-04-25T07:48:06.239Z,17.9
2018-04-25T07:49:05.977Z,17.72
2018-04-25T07:50:05.933Z,17.75
2018-04-25T07:51:06.152Z,17.77
2018-04-25T07:52:05.905Z,17.71
2018-04-25T07:53:06.162Z,17.59
2018-04-25T07:54:06.187Z,17.62
2018-04-25T07:55:06.212Z,17.62
2018-04-25T07:56:06.136Z,17.56
2018-04-25T07:57:06.140Z,17.49
2018-04-25T07:58:06.186Z,17.52
2018-04-25T07:59:05.631Z,17.49
2018-04-25T08:00:05.877Z,17.49
2018-04-25T08:01:06.123Z,17.52
2018-04-25T08:02:05.870Z,17.44
2018-04-25T08:03:06.113Z,17.41
2018-04-25T08:04:05.868Z,17.38
2018-04-25T08:05:06.134Z,17.38
2018-04-25T08:06:06.157Z,17.28
2018-04-25T08:07:05.850Z,17.22
2018-04-25T08:08:06.105Z,17.28
2018-04-25T08:09:06.150Z,17.36
2018-04-25T08:10:05.837Z,17.25
2018-04-25T08:11:06.101Z,17.23
2018-04-25T08:12:05.825Z,17.16
2018-04-25T08:13:05.827Z,17.23
2018-04-25T08:14:05.825Z,17.22
2018-04-25T08:15:05.604Z,17.16
2018-04-25T08:16:05.837Z,17.07
2018-04-25T08:17:06.063Z,17.18
2018-04-25T08:18:05.934Z,17.18
2018-04-25T08:19:05.554Z,17.21
2018-04-25T08:20:06.051Z,17.25
2018-04-25T08:21:05.537Z,17.28
2018-04-25T08:22:05.814Z,17.18
2018-04-25T08:23:06.035Z,17.3
2018-04-25T08:24:05.781Z,17.36
2018-04-25T08:25:05.538Z,17.25
2018-04-25T08:26:05.769Z,17.34
2018-04-25T08:27:06.028Z,17.48
2018-04-25T08:28:06.017Z,17.56
2018-04-25T08:29:06.017Z,17.63
2018-04-25T08:30:06.013Z,17.77
2018-04-25T08:31:05.749Z,17.9
2018-04-25T08:32:06.006Z,18.15
2018-04-25T08:33:06.013Z,18.25
2018-04-25T08:34:06.397Z,18.42
2018-04-25T08:35:05.747Z,18.55
2018-04-25T08:36:05.998Z,18.81
2018-04-25T08:37:05.479Z,18.91
2018-04-25T08:38:05.997Z,18.99
2018-04-25T08:39:05.986Z,19.26
2018-04-25T08:40:05.493Z,19.26
2018-04-25T08:41:05.976Z,19.39
2018-04-25T08:42:05.721Z,19.46
2018-04-25T08:43:05.711Z,19.55
2018-04-25T08:44:05.980Z,19.58
2018-04-25T08:45:05.907Z,19.58
2018-04-25T08:46:05.941Z,19.62
2018-04-25T08:47:05.987Z,19.71
2018-04-25T08:48:06.226Z,19.65
2018-04-25T08:49:05.713Z,19.8
2018-04-25T08:50:05.732Z,19.77
2018-04-25T08:51:05.693Z,19.76
2018-04-25T08:52:05.977Z,19.86
2018-04-25T08:53:05.973Z,19.78
2018-04-25T08:54:05.460Z,19.77
2018-04-25T08:55:05.700Z,19.8
2018-04-25T08:56:05.690Z,19.84
2018-04-25T08:57:05.685Z,19.78
2018-04-25T08:58:05.943Z,19.81
2018-04-25T08:59:05.674Z,19.81
2018-04-25T09:00:05.672Z,19.94
2018-04-25T09:01:05.686Z,19.8
2018-04-25T09:02:05.984Z,19.8
2018-04-25T09:03:05.937Z,19.84
2018-04-25T09:04:05.667Z,19.83
2018-04-25T09:05:05.930Z,19.91
2018-04-25T09:06:05.928Z,19.83
2018-04-25T09:07:05.671Z,19.94
2018-04-25T09:08:05.657Z,19.88
2018-04-25T09:09:05.653Z,20.1
2018-04-25T09:10:05.651Z,20.17
2018-04-25T09:11:05.661Z,20.29
2018-04-25T09:12:05.412Z,20.47
2018-04-25T09:13:05.923Z,20.61
2018-04-25T09:14:05.670Z,20.87
2018-04-25T09:15:05.914Z,21.03
2018-04-25T09:16:05.973Z,21.12
2018-04-25T09:17:05.905Z,21.34
2018-04-25T09:18:05.908Z,21.46
2018-04-25T09:19:05.647Z,21.72
2018-04-25T09:20:05.643Z,21.9
2018-04-25T09:21:05.635Z,21.9
2018-04-25T09:22:05.883Z,22.05
2018-04-25T09:23:05.883Z,22.12
2018-04-25T09:24:05.904Z,22.18
2018-04-25T09:25:05.382Z,22.22
2018-04-25T09:26:05.882Z,22.21
2018-04-25T09:27:05.647Z,22.36
2018-04-25T09:28:05.642Z,22.42
2018-04-25T09:29:05.897Z,22.45
2018-04-25T09:30:05.915Z,22.6
2018-04-25T09:31:05.908Z,22.82
2018-04-25T09:32:05.897Z,23.01
2018-04-25T09:33:05.895Z,23.28
2018-04-25T09:34:05.916Z,23.55
2018-04-25T09:35:05.681Z,23.69
2018-04-25T09:36:05.384Z,23.78
2018-04-25T09:37:05.642Z,23.95
2018-04-25T09:38:05.926Z,24.03
2018-04-25T09:39:05.651Z,24.09
2018-04-25T09:40:05.664Z,24.16
2018-04-25T09:41:05.664Z,24.12
2018-04-25T09:42:05.900Z,24.12
2018-04-25T09:43:05.397Z,24.13
2018-04-25T09:44:05.657Z,24.1
2018-04-25T09:45:05.924Z,24.13
2018-04-25T09:46:06.258Z,24.08
2018-04-25T09:47:05.933Z,24.06
2018-04-25T09:48:05.420Z,23.93
2018-04-25T09:49:05.675Z,23.93
2018-04-25T09:50:05.434Z,23.8
2018-04-25T09:51:05.701Z,23.87
2018-04-25T09:52:05.720Z,24.03
2018-04-25T09:53:05.974Z,24.1
2018-04-25T09:54:05.714Z,24.22
2018-04-25T09:55:05.437Z,24.21
2018-04-25T09:56:05.689Z,24.15
2018-04-25T09:57:06.239Z,24.31
2018-04-25T09:58:05.849Z,24.28
2018-04-25T09:59:05.686Z,24.31
2018-04-25T10:00:05.438Z,24.3
2018-04-25T10:01:05.953Z,24.32
2018-04-25T10:02:05.949Z,24.5
2018-04-25T10:03:05.700Z,24.47
2018-04-25T10:04:05.856Z,24.52
2018-04-25T10:05:05.967Z,24.47
2018-04-25T10:06:05.972Z,24.46
2018-04-25T10:07:06.000Z,24.55
2018-04-25T10:08:05.970Z,24.52
2018-04-25T10:09:05.716Z,24.61
2018-04-25T10:10:05.718Z,24.61
2018-04-25T10:11:05.464Z,24.69
2018-04-25T10:12:05.745Z,24.71
2018-04-25T10:13:05.726Z,24.67
2018-04-25T10:14:05.739Z,24.76
2018-04-25T10:15:05.488Z,24.71
2018-04-25T10:16:05.746Z,24.68
2018-04-25T10:17:05.886Z,24.77
2018-04-25T10:18:06.042Z,24.69
2018-04-25T10:19:06.074Z,24.8
2018-04-25T10:20:05.746Z,24.71
2018-04-25T10:21:05.504Z,24.69
2018-04-25T10:22:05.764Z,24.71
2018-04-25T10:23:06.019Z,24.73
2018-04-25T10:24:05.842Z,24.64
2018-04-25T10:25:05.763Z,24.55
2018-04-25T10:26:05.762Z,24.58
2018-04-25T10:27:05.772Z,24.55
2018-04-25T10:28:05.765Z,24.57
2018-04-25T10:29:05.773Z,24.55
2018-04-25T10:30:06.029Z,24.61
2018-04-25T10:31:06.042Z,24.49
2018-04-25T10:32:06.287Z,24.55
2018-04-25T10:33:06.036Z,24.65
2018-04-25T10:34:06.038Z,24.69
2018-04-25T10:35:06.041Z,24.87
2018-04-25T10:36:05.798Z,24.93
2018-04-25T10:37:05.806Z,24.91
2018-04-25T10:38:06.074Z,25.05
2018-04-25T10:39:05.808Z,25.2
2018-04-25T10:40:05.804Z,25.38
2018-04-25T10:41:05.817Z,25.3
2018-04-25T10:42:05.800Z,25.32
2018-04-25T10:43:06.055Z,25.33
2018-04-25T10:44:06.064Z,25.4
2018-04-25T10:45:06.077Z,25.39
2018-04-25T10:46:05.824Z,25.47
2018-04-25T10:47:05.821Z,25.54
2018-04-25T10:48:06.081Z,25.64
2018-04-25T10:49:06.071Z,25.62
2018-04-25T10:50:05.579Z,25.57
2018-04-25T10:51:05.826Z,25.52
2018-04-25T10:52:05.829Z,25.35
2018-04-25T10:53:06.083Z,25.3
2018-04-25T10:54:05.843Z,25.17
2018-04-25T10:55:06.095Z,25.2
2018-04-25T10:56:06.092Z,25.17
2018-04-25T10:57:05.858Z,25.21
2018-04-25T10:58:06.098Z,25.18
2018-04-25T10:59:06.110Z,25.2
2018-04-25T11:00:06.111Z,25.13
2018-04-25T11:01:06.124Z,25.18
2018-04-25T11:02:06.117Z,25.25
2018-04-25T11:03:06.159Z,25.18
2018-04-25T11:04:05.616Z,25.24
2018-04-25T11:05:06.132Z,25.15
2018-04-25T11:06:05.875Z,25.14
2018-04-25T11:07:05.877Z,25.09
2018-04-25T11:08:05.883Z,25.06
2018-04-25T11:09:06.157Z,24.95
2018-04-25T11:10:05.888Z,24.91
2018-04-25T11:11:05.883Z,24.85
2018-04-25T11:12:06.144Z,24.8
2018-04-25T11:13:06.157Z,24.85
2018-04-25T11:14:06.154Z,24.73
2018-04-25T11:15:05.909Z,24.8
2018-04-25T11:16:06.153Z,24.58
2018-04-25T11:17:05.899Z,24.53
2018-04-25T11:18:06.161Z,24.37
2018-04-25T11:19:05.919Z,24.25
2018-04-25T11:20:06.172Z,24.1
2018-04-25T11:21:06.177Z,24.1
2018-04-25T11:22:06.163Z,24.16
2018-04-25T11:23:06.183Z,24.21
2018-04-25T11:24:06.172Z,24.18
2018-04-25T11:25:05.953Z,24.4
2018-04-25T11:26:05.668Z,24.37
2018-04-25T11:27:05.689Z,24.39
2018-04-25T11:28:06.188Z,24.35
2018-04-25T11:29:06.189Z,24.37
2018-04-25T11:30:06.185Z,24.2
2018-04-25T11:31:06.183Z,24.1
2018-04-25T11:32:06.412Z,23.94
2018-04-25T11:33:05.707Z,23.88
2018-04-25T11:34:06.188Z,23.66
2018-04-25T11:35:05.708Z,23.55
2018-04-25T11:36:05.943Z,23.35
2018-04-25T11:37:05.941Z,23.17
2018-04-25T11:38:05.941Z,22.86
2018-04-25T11:39:06.215Z,22.47
2018-04-25T11:40:05.944Z,22.27
2018-04-25T11:41:06.208Z,21.9
2018-04-25T11:42:06.199Z,21.61
2018-04-25T11:43:05.941Z,21.32
2018-04-25T11:44:06.203Z,21.19
2018-04-25T11:45:06.201Z,21.04
2018-04-25T11:46:05.941Z,20.98
2018-04-25T11:47:05.968Z,21.01
2018-04-25T11:48:06.236Z,20.82
2018-04-25T11:49:06.196Z,20.84
2018-04-25T11:50:05.951Z,20.79
2018-04-25T11:51:06.231Z,20.69
2018-04-25T11:52:05.699Z,20.67
2018-04-25T11:53:06.196Z,20.51
2018-04-25T11:54:05.939Z,20.32
2018-04-25T11:55:05.941Z,20.13
2018-04-25T11:56:05.935Z,20.14
2018-04-25T11:57:06.187Z,19.88
2018-04-25T11:58:05.946Z,19.69
2018-04-25T11:59:06.184Z,19.61
2018-04-25T12:00:05.956Z,19.5
2018-04-25T12:01:05.968Z,19.32
2018-04-25T12:02:06.184Z,19.29
2018-04-25T12:03:06.204Z,19.18
2018-04-25T12:04:05.940Z,19.08
2018-04-25T12:05:06.411Z,18.92
2018-04-25T12:06:05.938Z,18.91
2018-04-25T12:07:05.917Z,18.81
2018-04-25T12:08:05.912Z,18.69
2018-04-25T12:09:05.938Z,18.63
2018-04-25T12:10:06.173Z,18.66
2018-04-25T12:11:06.174Z,18.67
2018-04-25T12:12:06.162Z,18.81
2018-04-25T12:13:06.332Z,18.84
2018-04-25T12:14:06.175Z,18.87
2018-04-25T12:15:06.172Z,19.02
2018-04-25T12:16:05.908Z,19.07
2018-04-25T12:17:06.158Z,18.91
2018-04-25T12:18:06.159Z,18.94
2018-04-25T12:19:05.639Z,18.88
2018-04-25T12:20:06.155Z,18.92
2018-04-25T12:21:05.886Z,18.92
2018-04-25T12:22:06.144Z,19
2018-04-25T12:23:05.885Z,19.11
2018-04-25T12:24:06.161Z,19.13
2018-04-25T12:25:05.883Z,19.21
2018-04-25T12:26:05.898Z,19.33
2018-04-25T12:27:06.136Z,19.36
2018-04-25T12:28:06.130Z,19.41
2018-04-25T12:29:06.150Z,19.54
2018-04-25T12:30:06.121Z,19.71
2018-04-25T12:31:05.611Z,19.83
2018-04-25T12:32:06.120Z,20.02
2018-04-25T12:33:06.126Z,20.17
2018-04-25T12:34:05.890Z,20.35
2018-04-25T12:35:06.115Z,20.58
2018-04-25T12:36:05.880Z,20.64
2018-04-25T12:37:05.868Z,20.97
2018-04-25T12:38:06.108Z,21.19
2018-04-25T12:39:06.113Z,21.22
2018-04-25T12:40:06.136Z,21.35
2018-04-25T12:41:05.869Z,21.49
2018-04-25T12:42:06.125Z,21.59
2018-04-25T12:43:06.121Z,21.61
2018-04-25T12:44:05.909Z,21.62
2018-04-25T12:45:05.898Z,21.56
2018-04-25T12:46:05.859Z,21.58
2018-04-25T12:47:06.156Z,21.59
2018-04-25T12:48:05.896Z,21.47
2018-04-25T12:49:06.147Z,21.52
2018-04-25T12:50:05.593Z,21.5
2018-04-25T12:51:05.862Z,21.37
2018-04-25T12:52:05.637Z,21.35
2018-04-25T12:53:06.137Z,21.29
2018-04-25T12:54:05.960Z,21.25
2018-04-25T12:55:06.092Z,21.19